Other Aviation Products
Issued by NWS

Home | Current Version | Previous Version | Text Only | Print | Product List | Glossary On
Versions: 1 2
000
NOAK58 PAWU 080608
OAVAWU
NATIONAL WEATHER SERVICE ALASKA AVIATION WEATHER UNIT
ANCHORAGE ALASKA

TO:    FORENSIC SERVICES MANAGER (W/OS23)
       NATIONAL WEATHER SERVICE
       C/O TELECOMMUNICATIONS GATEWAY
       SILVER SPRING, MD 20910

INFO:  ATTENTION ALASKA REGION - REGIONAL AVIATION METEOROLOGIST - W/AR1X1

ALPHA     IDENTIFICATION OF FLIGHT. AIRLINE AND FLIGHT NUMBER,
          PILOT NAME UNKNOWN, CH7B, N88452

BRAVO     17 MILES SE PA FAI 643257N 1474626W, 1944Z(ESTIMATED) 07 DECEMBER 2016.

CHARLIE   DOWNED AIRCRAFT DISCOVERED BY ARMY HELICOPTER, 1 ON BOARD THE PILOT DECEASED
          NO PASSENGERS.

DELTA     PAFA   SKY  VSBLY WX     SLP  TT  DP WIND   ALT      RH
          071853 CLR   10          395 -26 -31 3503   063      74
          071953 CLR   10          396 -27 -33 0105   063      74

          PAFB
          METAR PAFB 071858Z AUTO 04006KT 10SM CLR M24/M26 A3063=
          METAR PAFB 071958Z AUTO 07004KT 10SM CLR M24/M27 A3064=

ECHO      TAF PAFA 071720Z 0718/0824 VRB03KT P6SM SKC=

FOXTROT   SFC     00000KT     1500FT 07016KT    3000FT 08820FT   4500FT 07028KT
          500FT   07505KT     2000FT 08517KT    3500FT 08621FT   5000FT 07633KT
          1000FT  07010KT     2500FT 09519KT    4000FT 07724FT

GOLF      NONE.

HOTEL     UNKNOWN.

BRIAN W HAGENBUCH, METEOROLOGIST, AAWU





USA.gov is the U.S. government's official web portal to all federal, state and local government web resources and services.